createdAt,value
2018-11-06T00:01:31.282Z,18.65
2018-11-06T00:04:02.368Z,17.85
2018-11-06T00:06:33.087Z,18.02
2018-11-06T00:09:01.404Z,16.10
2018-11-06T00:11:29.656Z,14.87
2018-11-06T00:13:57.911Z,17.25
2018-11-06T00:16:26.165Z,16.15
2018-11-06T00:18:54.436Z,16.25
2018-11-06T00:21:22.678Z,14.50
2018-11-06T00:23:50.935Z,16.27
2018-11-06T00:26:19.179Z,15.55
2018-11-06T00:28:47.442Z,14.78
2018-11-06T00:31:15.719Z,14.80
2018-11-06T00:33:43.987Z,15.38
2018-11-06T00:36:12.246Z,16.52
2018-11-06T00:38:40.522Z,16.82
2018-11-06T00:41:08.786Z,16.67
2018-11-06T00:43:37.093Z,14.83
2018-11-06T00:46:05.654Z,15.58
2018-11-06T00:48:33.936Z,16.48
2018-11-06T00:51:02.218Z,14.40
2018-11-06T00:53:30.490Z,16.73
2018-11-06T00:55:58.783Z,16.55
2018-11-06T00:58:27.082Z,15.50
2018-11-06T01:00:55.342Z,15.55
2018-11-06T01:03:27.858Z,15.70
2018-11-06T01:05:56.200Z,15.98
2018-11-06T01:08:24.483Z,15.10
2018-11-06T01:10:52.765Z,16.40
2018-11-06T01:13:21.019Z,14.65
2018-11-06T01:15:49.283Z,16.95
2018-11-06T01:18:17.585Z,15.80
2018-11-06T01:20:45.826Z,15.00
2018-11-06T01:23:14.106Z,14.98
2018-11-06T01:25:42.354Z,16.40
2018-11-06T01:28:10.619Z,15.95
2018-11-06T01:30:38.932Z,18.12
2018-11-06T01:33:07.172Z,16.40
2018-11-06T01:35:35.447Z,15.10
2018-11-06T01:38:03.729Z,17.45
2018-11-06T01:40:31.986Z,17.30
2018-11-06T01:43:00.277Z,17.10
2018-11-06T01:45:28.509Z,17.82
2018-11-06T01:47:56.992Z,16.20
2018-11-06T01:50:25.243Z,16.73
2018-11-06T01:52:53.523Z,14.60
2018-11-06T01:55:21.799Z,14.00
2018-11-06T01:57:50.058Z,14.75
2018-11-06T02:00:19.294Z,15.13
2018-11-06T02:02:47.726Z,15.03
2018-11-06T02:05:17.301Z,12.90
2018-11-06T02:07:46.925Z,15.20
2018-11-06T02:10:15.755Z,14.38
2018-11-06T02:12:44.957Z,13.65
2018-11-06T02:15:13.244Z,15.15
2018-11-06T02:17:42.659Z,14.78
2018-11-06T02:20:11.750Z,13.32
2018-11-06T02:22:41.046Z,12.68
2018-11-06T02:25:10.034Z,14.70
2018-11-06T02:27:38.363Z,15.32
2018-11-06T02:30:08.234Z,14.23
2018-11-06T02:32:36.631Z,13.98
2018-11-06T02:35:05.095Z,13.25
2018-11-06T02:37:33.391Z,14.30
2018-11-06T02:40:01.783Z,13.85
2018-11-06T02:42:30.065Z,13.43
2018-11-06T02:44:58.344Z,12.73
2018-11-06T02:47:26.758Z,13.38
2018-11-06T02:49:55.035Z,13.83
2018-11-06T02:52:23.307Z,14.63
2018-11-06T02:54:51.641Z,13.65
2018-11-06T02:57:19.898Z,13.88
2018-11-06T02:59:48.211Z,14.53
2018-11-06T03:02:16.514Z,15.00
2018-11-06T03:04:44.813Z,15.38
2018-11-06T03:07:13.075Z,14.00
2018-11-06T03:09:41.349Z,13.72
2018-11-06T03:12:09.624Z,12.13
2018-11-06T03:14:37.926Z,13.83
2018-11-06T03:17:06.285Z,14.68
2018-11-06T03:19:34.537Z,12.70
2018-11-06T03:22:02.731Z,14.68
2018-11-06T03:24:31.011Z,15.43
2018-11-06T03:26:59.328Z,16.80
2018-11-06T03:29:27.562Z,13.62
2018-11-06T03:31:55.864Z,13.75
2018-11-06T03:34:24.150Z,12.63
2018-11-06T03:36:52.430Z,11.25
2018-11-06T03:39:20.682Z,11.55
2018-11-06T03:41:48.967Z,11.70
2018-11-06T03:44:17.321Z,11.63
2018-11-06T03:46:45.589Z,12.82
2018-11-06T03:49:14.214Z,12.28
2018-11-06T03:51:42.486Z,12.20
2018-11-06T03:54:10.796Z,10.00
2018-11-06T03:56:39.106Z,11.30
2018-11-06T03:59:07.378Z,10.65
2018-11-06T04:01:35.662Z,11.88
2018-11-06T04:04:03.902Z,11.48
2018-11-06T04:06:32.198Z,11.10
2018-11-06T04:09:00.517Z,10.58
2018-11-06T04:11:28.765Z,11.12
2018-11-06T04:13:57.019Z,10.82
2018-11-06T04:16:25.283Z,10.63
2018-11-06T04:18:53.559Z,11.45
2018-11-06T04:21:34.228Z,11.05
2018-11-06T04:24:02.609Z,10.45
2018-11-06T04:26:30.931Z,10.95
2018-11-06T04:28:59.234Z,11.20
2018-11-06T04:31:27.532Z,10.13
2018-11-06T04:33:55.784Z,11.50
2018-11-06T04:36:24.044Z,9.95
2018-11-06T04:38:52.310Z,10.85
2018-11-06T04:41:20.539Z,11.28
2018-11-06T04:43:48.873Z,11.03
2018-11-06T04:46:17.147Z,10.50
2018-11-06T04:48:45.368Z,12.85
2018-11-06T04:51:13.626Z,10.18
2018-11-06T04:53:41.873Z,10.18
2018-11-06T04:56:10.170Z,11.08
2018-11-06T04:58:38.427Z,11.83
2018-11-06T05:01:06.681Z,10.60
2018-11-06T05:03:34.978Z,11.00
2018-11-06T05:06:03.200Z,9.85
2018-11-06T05:08:31.451Z,10.55
2018-11-06T05:10:59.765Z,10.45
2018-11-06T05:13:28.015Z,10.95
2018-11-06T05:15:56.272Z,8.80
2018-11-06T05:18:24.517Z,10.78
2018-11-06T05:20:52.765Z,10.98
2018-11-06T05:23:21.015Z,24.15
2018-11-06T05:25:49.359Z,11.73
2018-11-06T05:28:17.648Z,9.98
2018-11-06T05:30:45.934Z,10.53
2018-11-06T05:33:14.270Z,10.48
2018-11-06T05:35:42.514Z,9.80
2018-11-06T05:38:10.771Z,10.93
2018-11-06T05:41:04.711Z,10.45
2018-11-06T05:43:33.308Z,9.85
2018-11-06T05:46:01.599Z,9.60
2018-11-06T05:48:29.940Z,10.82
2018-11-06T05:50:58.182Z,9.73
2018-11-06T05:53:26.472Z,11.20
2018-11-06T05:55:54.701Z,11.10
2018-11-06T05:58:23.053Z,11.50
2018-11-06T06:00:51.342Z,11.60
2018-11-06T06:03:19.626Z,12.55
2018-11-06T06:05:48.030Z,11.68
2018-11-06T06:08:16.327Z,10.38
2018-11-06T06:10:44.755Z,9.38
2018-11-06T06:13:13.216Z,9.98
2018-11-06T06:15:41.844Z,9.95
2018-11-06T06:18:10.251Z,11.05
2018-11-06T06:20:38.491Z,10.88
2018-11-06T06:23:06.763Z,9.90
2018-11-06T06:25:35.049Z,10.85
2018-11-06T06:28:03.314Z,10.40
2018-11-06T06:30:31.663Z,12.25
2018-11-06T06:32:59.955Z,10.80
2018-11-06T06:35:28.225Z,11.65
2018-11-06T06:37:57.073Z,9.80
2018-11-06T06:40:25.593Z,11.60
2018-11-06T06:42:54.010Z,10.65
2018-11-06T06:45:22.254Z,11.88
2018-11-06T06:47:50.593Z,12.33
2018-11-06T06:50:19.650Z,10.78
2018-11-06T06:52:48.610Z,11.65
2018-11-06T06:55:17.620Z,11.75
2018-11-06T06:57:46.615Z,10.98
2018-11-06T07:00:16.398Z,10.13
2018-11-06T07:02:44.677Z,10.35
2018-11-06T07:05:14.294Z,11.90
2018-11-06T07:07:43.395Z,13.15
2018-11-06T07:10:13.706Z,13.90
2018-11-06T07:12:43.374Z,11.97
2018-11-06T07:15:13.806Z,13.08
2018-11-06T07:17:42.845Z,13.30
2018-11-06T07:20:14.310Z,13.62
2018-11-06T07:22:42.609Z,14.07
2018-11-06T07:25:11.624Z,13.40
2018-11-06T07:27:40.762Z,13.83
2018-11-06T07:30:14.818Z,12.70
2018-11-06T07:32:44.085Z,11.55
2018-11-06T07:35:13.258Z,12.20
2018-11-06T07:37:42.076Z,12.07
2018-11-06T07:40:12.850Z,12.68
2018-11-06T07:42:41.393Z,11.95
2018-11-06T07:45:15.886Z,11.48
2018-11-06T07:47:44.372Z,11.63
2018-11-06T07:50:13.546Z,12.63
2018-11-06T07:52:42.084Z,11.30
2018-11-06T07:55:13.223Z,10.45
2018-11-06T07:57:41.543Z,10.23
2018-11-06T08:00:17.083Z,10.88
2018-11-06T08:02:46.240Z,9.78
2018-11-06T08:05:15.099Z,9.85
2018-11-06T08:07:44.222Z,8.55
2018-11-06T08:10:12.570Z,9.55
2018-11-06T08:12:42.607Z,8.68
2018-11-06T08:15:11.482Z,8.35
2018-11-06T08:17:40.110Z,11.70
2018-11-06T08:20:08.561Z,8.83
2018-11-06T08:22:37.236Z,8.77
2018-11-06T08:25:05.973Z,8.45
2018-11-06T08:27:34.363Z,8.08
2018-11-06T08:30:02.704Z,8.10
2018-11-06T08:32:31.716Z,8.20
2018-11-06T08:34:59.394Z,7.65
2018-11-06T08:37:27.630Z,7.90
2018-11-06T08:39:55.908Z,9.10
2018-11-06T08:42:24.196Z,7.53
2018-11-06T08:44:52.463Z,7.45
2018-11-06T08:47:20.751Z,7.92
2018-11-06T08:49:49.011Z,7.12
2018-11-06T08:52:17.282Z,7.72
2018-11-06T08:54:45.667Z,8.73
2018-11-06T08:57:13.864Z,7.63
2018-11-06T08:59:42.323Z,7.95
2018-11-06T09:02:10.820Z,8.20
2018-11-06T09:04:39.139Z,7.58
2018-11-06T09:07:07.624Z,7.92
2018-11-06T09:09:35.926Z,8.50
2018-11-06T09:12:04.219Z,7.80
2018-11-06T09:14:32.478Z,8.03
2018-11-06T09:17:00.830Z,8.75
2018-11-06T09:19:29.070Z,18.97
2018-11-06T09:21:57.394Z,14.93
2018-11-06T09:24:25.862Z,10.20
2018-11-06T09:26:54.103Z,9.50
2018-11-06T09:29:22.407Z,8.00
2018-11-06T09:31:50.648Z,8.27
2018-11-06T09:34:18.932Z,9.17
2018-11-06T09:36:47.263Z,8.63
2018-11-06T09:39:15.537Z,7.47
2018-11-06T09:41:43.836Z,7.83
2018-11-06T09:44:12.138Z,8.30
2018-11-06T09:46:40.586Z,8.43
2018-11-06T09:49:08.883Z,8.87
2018-11-06T09:51:37.385Z,8.10
2018-11-06T09:54:06.167Z,8.77
2018-11-06T09:56:34.475Z,8.43
2018-11-06T09:59:02.953Z,8.83
2018-11-06T10:01:31.287Z,8.40
2018-11-06T10:03:59.538Z,9.03
2018-11-06T10:06:27.928Z,9.03
2018-11-06T10:08:56.161Z,15.00
2018-11-06T10:11:24.476Z,8.37
2018-11-06T10:13:52.705Z,8.20
2018-11-06T10:16:21.009Z,9.57
2018-11-06T10:18:49.471Z,8.17
2018-11-06T10:21:17.738Z,9.30
2018-11-06T10:23:45.918Z,8.80
2018-11-06T10:26:14.198Z,9.87
2018-11-06T10:28:42.419Z,8.23
2018-11-06T10:31:10.786Z,8.13
2018-11-06T10:33:39.047Z,8.20
2018-11-06T10:36:07.303Z,8.97
2018-11-06T10:38:35.540Z,8.43
2018-11-06T10:41:03.810Z,7.80
2018-11-06T10:43:32.156Z,9.57
2018-11-06T10:46:00.427Z,8.20
2018-11-06T10:48:31.753Z,7.23
2018-11-06T10:50:59.982Z,8.03
2018-11-06T10:53:28.327Z,9.33
2018-11-06T10:55:56.578Z,9.23
2018-11-06T10:58:24.883Z,8.53
2018-11-06T11:00:58.494Z,7.70
2018-11-06T11:03:32.906Z,8.23
2018-11-06T11:06:01.351Z,7.83
2018-11-06T11:08:29.671Z,8.27
2018-11-06T11:10:58.252Z,7.47
2018-11-06T11:13:26.601Z,8.20
2018-11-06T11:15:54.858Z,8.23
2018-11-06T11:18:23.095Z,8.80
2018-11-06T11:20:51.370Z,8.07
2018-11-06T11:23:19.878Z,7.83
2018-11-06T11:25:48.430Z,7.13
2018-11-06T11:28:16.811Z,8.10
2018-11-06T11:30:45.117Z,7.50
2018-11-06T11:33:13.404Z,8.40
2018-11-06T11:35:41.739Z,7.73
2018-11-06T11:38:09.972Z,8.60
2018-11-06T11:40:38.211Z,7.90
2018-11-06T11:43:06.535Z,8.27
2018-11-06T11:45:34.876Z,7.63
2018-11-06T11:48:03.179Z,8.17
2018-11-06T11:50:31.481Z,8.00
2018-11-06T11:52:59.695Z,8.70
2018-11-06T11:55:27.969Z,10.10
2018-11-06T11:57:56.322Z,9.03
2018-11-06T12:00:27.275Z,8.87
2018-11-06T12:02:56.089Z,10.00
2018-11-06T12:05:24.327Z,8.27
2018-11-06T12:07:52.615Z,9.30
2018-11-06T12:10:20.905Z,9.80
2018-11-06T12:12:49.278Z,9.30
2018-11-06T12:15:19.529Z,13.40
2018-11-06T12:17:48.279Z,10.77
2018-11-06T12:20:17.532Z,11.63
2018-11-06T12:22:45.934Z,8.43
2018-11-06T12:25:14.636Z,9.73
2018-11-06T12:27:43.025Z,11.10
2018-11-06T12:30:14.395Z,10.30
2018-11-06T12:32:42.856Z,8.93
2018-11-06T12:35:12.006Z,9.10
2018-11-06T12:37:40.635Z,9.30
2018-11-06T12:40:10.370Z,10.43
2018-11-06T12:42:39.459Z,10.30
2018-11-06T12:45:09.648Z,8.67
2018-11-06T12:47:38.031Z,9.77
2018-11-06T12:50:07.251Z,8.83
2018-11-06T12:52:35.620Z,10.00
2018-11-06T12:55:04.874Z,9.47
2018-11-06T12:57:33.318Z,10.20
2018-11-06T13:00:01.611Z,9.27
2018-11-06T13:02:30.111Z,10.10
2018-11-06T13:04:58.657Z,10.10
2018-11-06T13:07:27.052Z,10.10
2018-11-06T13:09:55.345Z,8.90
2018-11-06T13:12:23.694Z,10.10
2018-11-06T13:14:52.050Z,9.50
2018-11-06T13:17:20.326Z,10.20
2018-11-06T13:19:48.672Z,9.40
2018-11-06T13:22:17.062Z,10.00
2018-11-06T13:24:45.441Z,11.50
2018-11-06T13:27:13.740Z,9.50
2018-11-06T13:29:42.046Z,8.87
2018-11-06T13:32:10.422Z,9.80
2018-11-06T13:34:38.774Z,10.70
2018-11-06T13:37:07.061Z,9.40
2018-11-06T13:39:35.352Z,10.50
2018-11-06T13:42:03.664Z,8.63
2018-11-06T13:44:32.220Z,8.63
2018-11-06T13:47:00.183Z,9.43
2018-11-06T13:49:28.486Z,11.33
2018-11-06T13:51:56.869Z,11.47
2018-11-06T13:54:25.167Z,8.80
2018-11-06T13:56:53.434Z,9.97
2018-11-06T13:59:21.768Z,9.63
2018-11-06T14:01:50.202Z,8.27
2018-11-06T14:04:18.671Z,9.83
2018-11-06T14:06:47.026Z,10.07
2018-11-06T14:09:15.429Z,8.57
2018-11-06T14:11:43.725Z,9.33
2018-11-06T14:14:12.235Z,9.37
2018-11-06T14:16:40.500Z,8.60
2018-11-06T14:19:08.827Z,9.00
2018-11-06T14:21:37.148Z,7.80
2018-11-06T14:24:05.577Z,8.33
2018-11-06T14:26:33.860Z,9.00
2018-11-06T14:29:02.169Z,9.03
2018-11-06T14:31:30.461Z,9.03
2018-11-06T14:33:58.731Z,9.50
2018-11-06T14:36:27.010Z,9.00
2018-11-06T14:38:55.291Z,9.00
2018-11-06T14:41:23.584Z,9.33
2018-11-06T14:43:51.862Z,11.07
2018-11-06T14:46:20.122Z,9.50
2018-11-06T14:48:48.599Z,12.20
2018-11-06T14:51:17.022Z,9.83
2018-11-06T14:53:45.356Z,9.30
2018-11-06T14:56:13.919Z,8.53
2018-11-06T14:58:42.233Z,8.20
2018-11-06T15:01:10.542Z,9.40
2018-11-06T15:03:38.894Z,9.90
2018-11-06T15:06:07.222Z,8.50
2018-11-06T15:08:35.489Z,9.63
2018-11-06T15:11:03.855Z,9.53
2018-11-06T15:13:32.106Z,9.53
2018-11-06T15:16:00.423Z,12.17
2018-11-06T15:18:28.748Z,12.63
2018-11-06T15:20:57.123Z,11.20
2018-11-06T15:23:25.280Z,11.93
2018-11-06T15:25:53.630Z,12.77
2018-11-06T15:28:22.027Z,12.20
2018-11-06T15:30:50.367Z,12.40
2018-11-06T15:33:18.664Z,12.20
2018-11-06T15:35:46.971Z,11.80
2018-11-06T15:38:15.269Z,12.60
2018-11-06T15:40:43.565Z,14.80
2018-11-06T15:43:11.895Z,12.53
2018-11-06T15:45:40.280Z,13.47
2018-11-06T15:48:08.579Z,11.97
2018-11-06T15:50:36.850Z,12.63
2018-11-06T15:53:05.569Z,12.20
2018-11-06T15:55:33.975Z,11.03
2018-11-06T15:58:02.279Z,11.27
2018-11-06T16:00:31.185Z,12.03
2018-11-06T16:02:59.556Z,12.83
2018-11-06T16:05:27.814Z,14.27
2018-11-06T16:07:56.119Z,12.90
2018-11-06T16:10:24.392Z,11.80
2018-11-06T16:12:52.751Z,13.60
2018-11-06T16:15:21.201Z,12.60
2018-11-06T16:17:49.474Z,15.03
2018-11-06T16:20:19.219Z,13.00
2018-11-06T16:22:47.761Z,13.03
2018-11-06T16:25:17.075Z,11.73
2018-11-06T16:27:45.885Z,13.80
2018-11-06T16:30:17.711Z,14.50
2018-11-06T16:32:46.251Z,14.23
2018-11-06T16:35:18.012Z,13.70
2018-11-06T16:37:47.183Z,13.60
2018-11-06T16:40:15.987Z,13.43
2018-11-06T16:42:45.113Z,12.73
2018-11-06T16:45:17.432Z,13.70
2018-11-06T16:47:47.203Z,12.63
2018-11-06T16:50:16.478Z,15.47
2018-11-06T16:52:44.744Z,14.10
2018-11-06T16:55:13.380Z,13.90
2018-11-06T16:57:42.593Z,14.70
2018-11-06T17:00:13.132Z,14.90
2018-11-06T17:02:41.735Z,15.60
2018-11-06T17:05:11.929Z,14.30
2018-11-06T17:07:40.421Z,17.80
2018-11-06T17:10:10.951Z,16.10
2018-11-06T17:12:39.287Z,17.00
2018-11-06T17:15:09.771Z,15.83
2018-11-06T17:17:38.135Z,18.43
2018-11-06T17:20:08.547Z,20.57
2018-11-06T17:22:36.979Z,18.27
2018-11-06T17:25:06.443Z,16.87
2018-11-06T17:27:34.707Z,16.97
2018-11-06T17:30:03.025Z,14.83
2018-11-06T17:32:31.436Z,16.20
2018-11-06T17:34:59.695Z,17.17
2018-11-06T17:37:27.987Z,17.60
2018-11-06T17:39:56.268Z,19.63
2018-11-06T17:42:24.738Z,18.87
2018-11-06T17:44:53.054Z,19.33
2018-11-06T17:47:21.428Z,17.70
2018-11-06T17:49:49.696Z,18.13
2018-11-06T17:52:18.226Z,16.03
2018-11-06T17:54:46.485Z,17.53
2018-11-06T17:57:14.997Z,15.70
2018-11-06T17:59:43.373Z,18.20
2018-11-06T18:02:11.862Z,18.57
2018-11-06T18:04:40.188Z,19.70
2018-11-06T18:07:08.489Z,17.80
2018-11-06T18:09:36.971Z,18.93
2018-11-06T18:12:05.826Z,19.13
2018-11-06T18:14:34.510Z,18.90
2018-11-06T18:17:02.884Z,18.10
2018-11-06T18:19:31.491Z,19.27
2018-11-06T18:21:59.896Z,20.35
2018-11-06T18:24:28.309Z,18.97
2018-11-06T18:26:57.149Z,19.20
2018-11-06T18:29:25.498Z,17.97
2018-11-06T18:31:53.837Z,20.70
2018-11-06T18:34:22.100Z,17.97
2018-11-06T18:36:50.387Z,18.82
2018-11-06T18:39:19.526Z,21.10
2018-11-06T18:41:47.841Z,19.57
2018-11-06T18:44:16.279Z,20.43
2018-11-06T18:46:44.506Z,20.50
2018-11-06T18:49:13.039Z,19.60
2018-11-06T18:51:41.314Z,19.23
2018-11-06T18:54:09.984Z,18.63
2018-11-06T18:56:38.251Z,18.27
2018-11-06T18:59:06.642Z,19.43
2018-11-06T19:01:35.966Z,18.90
2018-11-06T19:04:05.529Z,21.23
2018-11-06T19:06:33.797Z,17.98
2018-11-06T19:09:02.174Z,29.07
2018-11-06T19:11:30.509Z,21.17
2018-11-06T19:13:58.794Z,18.77
2018-11-06T19:16:27.157Z,18.33
2018-11-06T19:18:55.424Z,18.70
2018-11-06T19:21:23.862Z,18.03
2018-11-06T19:23:52.175Z,17.42
2018-11-06T19:26:20.391Z,17.98
2018-11-06T19:28:48.758Z,17.60
2018-11-06T19:31:17.062Z,17.15
2018-11-06T19:33:45.339Z,17.02
2018-11-06T19:36:13.696Z,14.90
2018-11-06T19:38:42.049Z,15.93
2018-11-06T19:41:10.478Z,14.03
2018-11-06T19:43:38.758Z,14.23
2018-11-06T19:46:07.383Z,14.30
2018-11-06T19:48:35.695Z,13.97
2018-11-06T19:51:04.076Z,14.90
2018-11-06T19:53:32.415Z,13.85
2018-11-06T19:56:00.644Z,14.40
2018-11-06T19:58:28.985Z,18.00
2018-11-06T20:00:57.341Z,13.60
2018-11-06T20:03:25.704Z,14.43
2018-11-06T20:05:54.217Z,14.40
2018-11-06T20:08:22.499Z,14.58
2018-11-06T20:10:50.892Z,14.60
2018-11-06T20:13:19.175Z,14.93
2018-11-06T20:15:47.528Z,13.53
2018-11-06T20:18:15.872Z,14.33
2018-11-06T20:20:44.131Z,15.28
2018-11-06T20:23:12.611Z,14.13
2018-11-06T20:25:40.869Z,14.90
2018-11-06T20:28:09.366Z,14.50
2018-11-06T20:30:37.656Z,17.00
2018-11-06T20:33:06.171Z,16.75
2018-11-06T20:35:34.510Z,16.55
2018-11-06T20:38:02.851Z,16.53
2018-11-06T20:40:31.165Z,16.62
2018-11-06T20:42:59.615Z,15.50
2018-11-06T20:45:27.891Z,16.60
2018-11-06T20:47:56.275Z,16.90
2018-11-06T20:50:25.158Z,17.48
2018-11-06T20:52:53.507Z,15.18
2018-11-06T20:55:21.753Z,14.15
2018-11-06T20:57:50.141Z,16.27
2018-11-06T21:00:23.475Z,16.57
2018-11-06T21:02:53.098Z,16.62
2018-11-06T21:05:21.367Z,16.02
2018-11-06T21:07:49.819Z,14.87
2018-11-06T21:10:19.611Z,13.93
2018-11-06T21:12:48.285Z,16.85
2018-11-06T21:15:16.709Z,17.15
2018-11-06T21:17:45.304Z,17.60
2018-11-06T21:20:14.391Z,17.12
2018-11-06T21:22:42.829Z,17.52
2018-11-06T21:25:11.493Z,16.52
2018-11-06T21:27:40.380Z,16.90
2018-11-06T21:30:10.262Z,16.45
2018-11-06T21:32:39.298Z,15.43
2018-11-06T21:35:07.682Z,17.12
2018-11-06T21:37:35.979Z,16.80
2018-11-06T21:40:04.779Z,16.52
2018-11-06T21:42:33.203Z,17.70
2018-11-06T21:45:01.476Z,19.20
2018-11-06T21:47:29.854Z,17.42
2018-11-06T21:49:58.147Z,17.87
2018-11-06T21:52:26.390Z,19.10
2018-11-06T21:54:54.731Z,16.02
2018-11-06T21:57:23.016Z,15.90
2018-11-06T21:59:51.501Z,15.60
2018-11-06T22:02:19.923Z,16.30
2018-11-06T22:04:48.262Z,16.67
2018-11-06T22:07:16.597Z,17.20
2018-11-06T22:09:45.134Z,18.10
2018-11-06T22:12:13.493Z,20.50
2018-11-06T22:14:41.787Z,18.45
2018-11-06T22:17:10.111Z,17.32
2018-11-06T22:19:38.390Z,16.65
2018-11-06T22:22:06.852Z,15.23
2018-11-06T22:24:35.317Z,14.58
2018-11-06T22:27:03.740Z,16.15
2018-11-06T22:29:32.101Z,14.75
2018-11-06T22:32:00.452Z,14.60
2018-11-06T22:34:28.735Z,16.23
2018-11-06T22:36:57.075Z,15.03
2018-11-06T22:39:25.360Z,16.77
2018-11-06T22:41:53.691Z,13.88
2018-11-06T22:44:21.997Z,15.23
2018-11-06T22:46:50.238Z,16.25
2018-11-06T22:49:18.516Z,15.18
2018-11-06T22:51:46.818Z,15.95
2018-11-06T22:54:15.430Z,14.60
2018-11-06T22:56:43.747Z,15.08
2018-11-06T22:59:12.031Z,14.98
2018-11-06T23:01:40.297Z,16.05
2018-11-06T23:04:08.583Z,17.40
2018-11-06T23:06:37.024Z,17.55
2018-11-06T23:09:07.898Z,14.93
2018-11-06T23:11:36.382Z,14.85
2018-11-06T23:14:04.793Z,14.20
2018-11-06T23:16:33.099Z,13.98
2018-11-06T23:19:01.394Z,14.07
2018-11-06T23:21:29.691Z,15.10
2018-11-06T23:23:57.938Z,14.73
2018-11-06T23:26:26.277Z,13.80
2018-11-06T23:28:54.511Z,14.87
2018-11-06T23:31:23.212Z,14.65
2018-11-06T23:33:51.478Z,14.68
2018-11-06T23:36:19.748Z,14.55
2018-11-06T23:38:47.996Z,14.28
2018-11-06T23:41:16.308Z,14.23
2018-11-06T23:43:44.543Z,15.15
2018-11-06T23:46:12.831Z,13.60
2018-11-06T23:48:41.228Z,13.93
2018-11-06T23:51:09.536Z,13.03
2018-11-06T23:53:37.790Z,14.68
2018-11-06T23:56:06.063Z,12.90
2018-11-06T23:58:34.351Z,14.23
